Latest Weather Observations for Devonport Airport

IDT60801

Issued at 4:01 pm EDT Thursday 28 January 2021 (issued every 10 minutes, with the page automatically refreshed every 10 minutes)

About weather observations | Map of weather stations | Latest weather observations for TAS | Other Formats
Station Details ID: 091126 Name: DEVONPORT AIRPORT Lat: -41.17 Lon: 146.43 Height: 8.0 m
Data from the previous 72 hours. | See also: Recent months at Devonport Airport
Date/Time
EDT
Temp
°C
App
Temp
°C
Dew
Point
°C
Rel
Hum
%
Delta-T
°C
Wind Press
QNH
hPa
Press
MSL
hPa
Rain since
9am
mm
Dir  Spd
km/h
Gust
km/h
Spd
kts
Gust
kts
28/04:00pm 19.1 9.7 10.1 56 4.8 NE 50 61 27 33 1024.9 1024.8 0.0
28/03:30pm 18.6 10.2 9.7 56 4.7 NE 44 56 24 30 1025.0 1024.9 0.0
28/03:00pm 18.9 10.4 8.6 51 5.3 NE 43 54 23 29 1025.3 1025.2 0.0
28/02:30pm 18.8 10.2 9.0 53 5.1 NE 44 57 24 31 1025.8 1025.7 0.0
28/02:00pm 19.5 11.6 7.9 47 5.9 NE 39 63 21 34 1025.9 1025.8 0.0
28/01:30pm 19.6 11.9 8.6 49 5.7 NE 39 50 21 27 1026.6 1026.5 0.0
28/01:00pm 18.9 12.1 7.7 48 5.7 NE 33 54 18 29 1027.1 1027.0 0.0
28/12:55pm 19.3 12.3 8.6 50 5.6 NE 35 54 19 29 1027.0 1026.9 0.0
28/12:30pm 19.3 12.9 6.8 44 6.3 NE 30 39 16 21 1027.4 1027.3 0.0
28/12:00pm 19.1 13.8 6.6 44 6.2 NE 24 35 13 19 1027.7 1027.6 0.0
28/11:30am 18.2 12.7 6.1 45 6.0 ENE 24 35 13 19 1028.0 1027.9 0.0
28/11:00am 16.9 12.3 5.8 48 5.3 ENE 19 32 10 17 1028.2 1028.1 0.0
28/10:30am 16.5 11.8 6.1 50 5.1 E 20 32 11 17 1028.3 1028.2 0.0
28/10:00am 15.7 11.0 5.9 52 4.7 E 20 28 11 15 1028.5 1028.4 0.0
28/09:30am 15.6 10.4 5.5 51 4.8 E 22 35 12 19 1028.4 1028.3 0.0
28/09:00am 15.3 9.8 5.8 53 4.5 ESE 24 32 13 17 1028.4 1028.3 0.0
28/08:30am 14.8 8.9 5.9 55 4.3 ESE 26 37 14 20 1028.2 1028.1 0.0
28/08:00am 13.9 8.4 5.8 58 3.8 SE 24 33 13 18 1027.7 1027.6 0.0
28/07:30am 12.7 7.9 5.6 62 3.3 SE 20 26 11 14 1027.6 1027.5 0.0
28/07:00am 11.2 7.0 5.9 70 2.4 SE 17 22 9 12 1027.3 1027.2 0.0
28/06:30am 10.5 6.3 5.9 73 2.1 SE 17 20 9 11 1027.1 1027.0 0.0
28/06:00am 11.3 6.5 5.6 68 2.6 SE 20 24 11 13 1027.0 1026.9 0.0
28/05:30am 12.1 7.0 5.9 66 2.9 SE 22 30 12 16 1026.5 1026.4 0.0
28/05:00am 12.5 7.9 6.5 67 2.8 ESE 20 33 11 18 1026.0 1025.9 0.0
28/04:30am 12.4 7.9 6.9 69 2.6 SE 20 26 11 14 1026.1 1026.0 0.0
28/04:00am 12.4 7.9 6.9 69 2.6 SE 20 24 11 13 1026.3 1026.2 0.0
28/03:30am 12.6 8.1 6.9 68 2.7 SE 20 30 11 16 1025.9 1025.8 0.0
28/03:00am 13.0 7.7 6.6 65 3.0 SE 24 32 13 17 1026.0 1025.9 0.0
28/02:30am 13.0 8.0 6.6 65 3.1 SE 22 32 12 17 1026.1 1026.0 0.0
28/02:00am 13.3 8.2 6.2 62 3.4 SE 22 26 12 14 1026.1 1026.0 0.0
28/01:30am 13.6 8.9 6.0 60 3.6 SE 20 24 11 13 1026.2 1026.1 0.0
28/01:00am 13.7 9.8 5.3 57 3.9 SE 15 19 8 10 1026.1 1026.0 0.0
28/12:30am 14.1 9.8 5.2 55 4.2 E 17 24 9 13 1026.0 1025.9 0.0
28/12:00am 14.5 9.3 5.3 54 4.3 E 22 28 12 15 1026.0 1025.9 0.0
 
Date/Time
EDT
Temp
°C
App
Temp
°C
Dew
Point
°C
Rel
Hum
%
Delta-T
°C
Wind Press
QNH
hPa
Press
MSL
hPa
Rain since
9am
mm
Dir  Spd
km/h
Gust
km/h
Spd
kts
Gust
kts
27/11:30pm 15.0 9.4 5.5 53 4.5 ESE 24 35 13 19 1025.6 1025.5 0.0
27/11:00pm 15.5 10.0 5.7 52 4.7 ESE 24 35 13 19 1025.4 1025.3 0.0
27/10:30pm 15.6 12.2 9.3 66 3.2 E 17 22 9 12 1024.8 1024.7 0.0
27/10:00pm 16.0 11.7 9.2 64 3.5 ENE 22 30 12 16 1024.3 1024.2 0.0
27/09:30pm 16.2 10.9 9.8 66 3.3 ENE 28 33 15 18 1023.9 1023.8 0.0
27/09:00pm 16.4 11.2 10.3 67 3.2 NE 28 35 15 19 1023.4 1023.3 0.0
27/08:30pm 16.7 11.8 10.1 65 3.5 NE 26 35 14 19 1023.2 1023.1 0.0
27/08:00pm 17.7 12.8 10.1 61 4.0 NE 26 33 14 18 1023.0 1022.9 0.0
27/07:30pm 17.8 14.3 10.9 64 3.7 NNE 20 28 11 15 1022.6 1022.5 0.0
27/07:00pm 18.4 14.4 10.5 60 4.2 NNE 22 26 12 14 1022.2 1022.1 0.0
27/06:30pm 18.1 14.4 10.0 59 4.3 NNE 20 24 11 13 1021.6 1021.5 0.0
27/06:00pm 18.5 14.3 9.6 56 4.7 NNE 22 28 12 15 1021.4 1021.3 0.0
27/05:30pm 18.9 15.1 9.9 56 4.8 N 20 28 11 15 1021.3 1021.2 0.0
27/05:00pm 18.9 14.8 8.6 51 5.3 N 20 28 11 15 1020.8 1020.7 0.0
27/04:30pm 18.8 14.7 8.7 52 5.2 N 20 26 11 14 1020.9 1020.8 0.0
27/04:00pm 19.2 14.6 9.7 54 5.0 N 24 28 13 15 1020.8 1020.7 0.0
27/03:30pm 19.5 14.4 7.6 46 6.1 N 24 30 13 16 1020.5 1020.4 0.0
27/03:00pm 20.2 15.9 6.9 42 6.7 N 19 24 10 13 1020.4 1020.3 0.0
27/02:30pm 19.6 15.1 7.0 44 6.4 NNW 20 24 11 13 1020.3 1020.2 0.0
27/02:00pm 20.2 15.8 7.2 43 6.6 N 20 24 11 13 1020.3 1020.2 0.0
27/01:30pm 19.8 15.1 7.9 46 6.1 N 22 28 12 15 1020.2 1020.1 0.0
27/01:00pm 18.6 14.1 6.1 44 6.1 N 19 20 10 11 1019.9 1019.8 0.0
27/12:30pm 19.8 17.1 5.8 40 6.9 SE 9 24 5 13 1019.7 1019.6 0.0
27/12:00pm 19.2 14.8 4.9 39 6.9 SE 17 24 9 13 1019.5 1019.4 0.0
27/11:30am 18.9 13.8 6.1 43 6.3 SE 22 32 12 17 1019.3 1019.2 0.0
27/11:00am 18.2 12.5 4.7 41 6.4 SSE 24 32 13 17 1019.3 1019.2 0.0
27/10:30am 17.7 10.9 5.3 44 6.0 SSE 30 37 16 20 1019.0 1018.9 0.0
27/10:00am 16.9 10.1 4.9 45 5.7 SSE 30 39 16 21 1018.8 1018.7 0.0
27/09:30am 15.5 8.0 4.6 48 5.1 SSE 33 41 18 22 1018.5 1018.4 0.0
27/09:00am 15.1 7.7 5.0 51 4.7 SSE 33 41 18 22 1018.1 1018.0 0.0
27/08:30am 14.0 6.8 4.9 54 4.2 SE 32 46 17 25 1017.5 1017.5 0.0
27/08:00am 12.8 5.6 5.0 59 3.6 SSE 32 41 17 22 1017.0 1017.0 0.0
27/07:30am 11.5 5.8 4.9 64 3.0 SSE 24 32 13 17 1016.5 1016.5 0.0
27/07:00am 10.6 5.7 4.9 68 2.6 SSE 20 28 11 15 1015.8 1015.8 0.0
27/06:30am 8.4 4.4 4.8 78 1.6 S 15 22 8 12 1015.3 1015.3 0.0
27/06:00am 7.1 4.5 3.3 77 1.6 W 6 9 3 5 1014.8 1014.8 0.0
27/05:30am 7.6 5.0 4.0 78 1.6 S 7 9 4 5 1014.2 1014.2 0.0
27/05:00am 7.2 3.8 3.8 79 1.5 S 11 15 6 8 1013.9 1013.9 0.0
27/04:30am 7.5 4.9 4.3 80 1.4 S 7 9 4 5 1013.5 1013.5 0.0
27/04:00am 7.6 4.1 3.5 75 1.7 SSE 11 13 6 7 1013.0 1013.0 0.0
27/03:30am 7.8 5.1 3.8 76 1.7 S 7 9 4 5 1012.7 1012.7 0.0
27/03:00am 8.0 6.1 2.9 70 2.2 S 2 6 1 3 1012.4 1012.4 0.0
27/02:30am 9.2 6.7 4.0 70 2.3 S 6 6 3 3 1011.9 1011.9 0.0
27/02:00am 10.1 7.3 3.4 63 2.9 SSE 7 9 4 5 1011.4 1011.4 0.0
27/01:30am 10.1 7.0 3.6 64 2.8 S 9 13 5 7 1011.0 1011.0 0.0
27/01:00am 11.0 8.1 2.6 56 3.6 S 7 13 4 7 1010.7 1010.7 0.0
27/12:30am 11.2 8.4 3.3 58 3.5 SE 7 15 4 8 1010.4 1010.4 0.0
27/12:00am 10.8 6.6 1.9 54 3.8 SW 13 17 7 9 1010.1 1010.1 0.0
 
Date/Time
EDT
Temp
°C
App
Temp
°C
Dew
Point
°C
Rel
Hum
%
Delta-T
°C
Wind Press
QNH
hPa
Press
MSL
hPa
Rain since
9am
mm
Dir  Spd
km/h
Gust
km/h
Spd
kts
Gust
kts
26/11:30pm 12.2 8.5 2.1 50 4.3 SSW 11 13 6 7 1009.9 1009.9 0.0
26/11:00pm 12.3 8.2 2.2 50 4.4 S 13 17 7 9 1009.6 1009.6 0.0
26/10:30pm 13.2 7.7 2.1 47 4.8 S 20 26 11 14 1009.1 1009.1 0.0
26/10:00pm 14.0 8.5 2.0 44 5.3 S 20 28 11 15 1008.3 1008.3 0.0
26/09:30pm 14.2 8.9 2.1 44 5.3 SSW 19 30 10 16 1007.4 1007.4 0.0
26/09:00pm 15.0 9.6 2.2 42 5.7 SSW 20 30 11 16 1006.8 1006.8 0.0
26/08:30pm 15.8 9.3 2.6 41 5.9 SSW 26 35 14 19 1006.0 1006.0 0.0
26/08:00pm 16.8 9.9 2.8 39 6.4 SSW 28 44 15 24 1005.1 1005.1 0.0
26/07:36pm 17.7 10.4 2.5 36 6.9 SW 30 48 16 26 1004.6 1004.6 0.0
26/07:30pm 18.0 10.1 2.3 35 7.1 SW 33 48 18 26 1004.4 1004.4 0.0
26/07:25pm 18.2 10.9 2.5 35 7.2 SW 30 48 16 26 1004.2 1004.2 0.0
26/07:00pm 18.9 10.5 3.5 36 7.3 SW 37 46 20 25 1003.5 1003.5 0.0
26/06:30pm 19.9 12.1 2.7 32 8.0 SW 33 52 18 28 1003.0 1003.0 0.0
26/06:07pm 20.6 13.0 3.8 33 8.0 WSW 33 52 18 28 1002.6 1002.6 0.0
26/06:00pm 21.2 13.7 4.7 34 8.1 SW 33 44 18 24 1002.6 1002.6 0.0
26/05:30pm 21.5 14.1 5.0 34 8.1 WSW 33 46 18 25 1002.2 1002.2 0.0
26/05:00pm 22.3 14.6 5.3 33 8.5 WSW 35 46 19 25 1002.0 1002.0 0.0
26/04:30pm 22.8 15.4 6.6 35 8.3 WSW 35 44 19 24 1001.5 1001.5 0.0
26/04:00pm 23.4 16.4 6.7 34 8.6 WSW 33 43 18 23 1001.2 1001.2 0.0
26/03:30pm 23.9 17.6 7.5 35 8.6 WSW 30 39 16 21 1000.7 1000.7 0.0
26/03:00pm 23.7 18.1 7.3 35 8.6 WSW 26 39 14 21 1000.6 1000.6 0.0
26/02:30pm 23.7 17.2 8.2 37 8.2 WSW 32 46 17 25 1000.3 1000.3 0.0
26/02:00pm 23.1 16.9 8.0 38 8.0 SW 30 39 16 21 1000.3 1000.3 0.0
26/01:30pm 23.3 18.5 7.4 36 8.3 SW 22 37 12 20 1000.1 1000.1 0.0
26/01:00pm 23.4 19.1 9.4 41 7.6 SW 22 33 12 18 1000.2 1000.2 0.0
26/12:30pm 22.1 18.0 8.6 42 7.1 WSW 20 28 11 15 1000.1 1000.1 0.0
26/12:00pm 22.8 17.3 9.2 42 7.3 SW 28 37 15 20 999.9 999.9 0.0
26/11:30am 21.7 16.3 8.2 42 7.1 SW 26 35 14 19 999.9 999.9 0.0
26/11:20am 21.8 15.3 8.3 42 7.1 SW 32 50 17 27 999.9 999.9 0.0
26/11:00am 21.9 17.2 9.1 44 6.9 SW 24 33 13 18 999.8 999.8 0.0
26/10:30am 20.8 15.8 9.7 49 5.9 SW 26 39 14 21 999.6 999.6 0.0
26/10:00am 20.8 17.1 11.4 55 5.2 SSW 22 35 12 19 999.2 999.2 0.0
26/09:30am 19.8 15.1 10.5 55 5.0 SW 26 35 14 19 998.9 998.9 0.0
26/09:00am 19.5 17.1 13.7 69 3.3 WSW 19 24 10 13 998.5 998.5 6.8
26/08:30am 18.5 15.6 14.0 75 2.6 WSW 22 30 12 16 998.4 998.4 6.8
26/08:00am 17.0 16.0 14.5 85 1.4 WSW 13 24 7 13 997.8 997.8 6.8
26/07:30am 17.3 18.9 17.0 98 0.2 NW 4 9 2 5 997.5 997.5 6.8
26/07:00am 16.9 18.8 16.7 99 0.1 WSW 2 6 1 3 997.2 997.2 6.8
26/06:30am 16.7 17.6 16.7 100 0.0 SW 7 9 4 5 996.7 996.7 6.8
26/06:00am 16.9 16.4 16.9 100 0.0 WSW 15 17 8 9 996.7 996.7 6.8
26/05:30am 17.3 15.3 17.3 100 0.0 WNW 24 30 13 16 996.7 996.7 6.8
26/05:00am 17.2 13.4 17.2 100 0.0 WNW 33 37 18 20 996.7 996.7 6.8
26/04:30am 17.2 14.0 17.2 100 0.0 WNW 30 39 16 21 996.5 996.5 6.2
26/04:00am 17.8 17.7 17.8 100 0.0 W 15 22 8 12 996.4 996.4 6.0
26/03:30am 18.1 16.8 18.1 100 0.0 W 22 26 12 14 996.6 996.6 4.8
26/03:15am 18.1 17.3 18.1 100 0.0 WNW 19 22 10 12 996.3 996.3 4.0
26/03:00am 18.2 17.3 18.2 100 0.0 NW 20 24 11 13 996.1 996.1 4.0
26/02:30am 18.5 17.7 18.5 100 0.0 NW 20 24 11 13 996.6 996.6 3.4
26/02:10am 18.7 18.0 18.7 100 0.0 NW 20 28 11 15 997.3 997.3 2.4
26/02:00am 18.8 18.7 18.8 100 0.0 NW 17 20 9 11 997.0 997.0 2.2
26/01:30am 18.9 18.2 18.6 98 0.2 NNW 20 24 11 13 997.3 997.3 1.8
26/01:00am 19.0 20.8 18.8 99 0.1 NNE 7 17 4 9 997.4 997.4 1.8
26/12:30am 19.3 20.8 19.0 98 0.2 NNE 9 13 5 7 997.3 997.3 1.8
26/12:00am 19.1 19.8 18.9 99 0.1 NNE 13 17 7 9 998.2 998.2 1.8
 
Date/Time
EDT
Temp
°C
App
Temp
°C
Dew
Point
°C
Rel
Hum
%
Delta-T
°C
Wind Press
QNH
hPa
Press
MSL
hPa
Rain since
9am
mm
Dir  Spd
km/h
Gust
km/h
Spd
kts
Gust
kts
25/11:30pm 19.4 21.4 19.2 99 0.1 ENE 7 11 4 6 998.6 998.6 1.6
25/11:00pm 19.1 22.3 18.9 99 0.1 CALM 0 0 0 0 998.8 998.8 1.4
25/10:30pm 19.3 21.3 19.1 99 0.1 WNW 7 11 4 6 998.9 998.9 1.2
25/10:00pm 19.4 21.6 19.2 99 0.1 NNE 6 9 3 5 999.0 999.0 0.8
25/09:30pm 19.6 20.9 19.3 98 0.2 E 11 13 6 7 998.4 998.4 0.6
25/09:00pm 19.7 22.3 18.5 93 0.8 WNW 2 7 1 4 998.7 998.7 0.4
25/08:30pm 20.2 21.9 18.5 90 1.1 WNW 7 11 4 6 998.6 998.6 0.0
25/08:00pm 20.8 23.7 18.2 85 1.6 CALM 0 0 0 0 997.3 997.3 0.0
25/07:30pm 21.0 22.6 18.2 84 1.7 S 7 11 4 6 996.9 996.9 0.0
25/07:00pm 20.9 22.4 17.7 82 2.0 SSE 6 9 3 5 997.1 997.1 0.0
25/06:30pm 20.5 22.5 16.9 80 2.2 S 2 7 1 4 997.3 997.3 0.0
25/06:00pm 20.2 20.4 16.8 81 2.1 ENE 11 15 6 8 996.4 996.4 0.0
25/05:30pm 20.4 20.9 16.6 79 2.3 NNE 9 13 5 7 996.8 996.8 0.0
25/05:00pm 20.9 21.5 16.7 77 2.6 NE 9 13 5 7 996.5 996.5 0.0
25/04:30pm 21.1 20.4 16.3 74 2.9 NNE 15 19 8 10 996.8 996.8 0.0

Other formats

Comma delimited format used in spreadsheet applications
http://www.bom.gov.au/fwo/IDT60801/IDT60801.95960.axf

JavaScript Object Notation format (JSON) in row-major order
http://www.bom.gov.au/fwo/IDT60801/IDT60801.95960.json

Data quality

Most of these data are generated automatically and are frequently updated. Quality checks on data are not normally performed. It is possible for incorrect values to appear. Refer to information at About Latest Weather Observations and please check the disclaimer before using these data.